x

South Bermuda - 300 Nm Sse Of Bermuda (41049) Wave Buoy

7:50am - Sun 22nd Jan 2017 All times are UTC.

  • Sig Wave height 8.9ft
  • Swell Direction
  • Peak Period 12s
  • Average Period 9s
  • Wind
    7mph, 11mph gusts
  • Sea Temp 75°f
  • Air Temp 69°f
  • Sea Pressure 1014.6mb

More Historic Weather Station data

Upgrade to MSW Pro to gain access to the past 30 days of data for over 8000 Wavebouys and Weather Stations around the globe.

Join Pro

Comparision Forecast

View Surf forecast
   
Sun 01/22 7:50am 9ft 12s 9s 7 11 mph 1014.6mb 75f 69f
6:50am 8.5ft 11s 9s 9 11 mph 1014.9mb 75f 69f
5:50am 8ft 12s 9s 9 11 mph 1015mb 75f 69f
4:50am 10ft 12s 9s 9 13 mph 1015mb 75f 69f
3:50am 8ft 11s 9s 9 13 mph 1015.3mb 75f 69f
2:50am 9ft 14s 9s 9 13 mph 1015.7mb 75f 69f
1:50am 8ft 12s 9s 7 11 mph 1015.5mb 75f 69f
12:50am 8.5ft 13s 9s 7 11 mph 1015.3mb 75f 69f
Sat 01/21 11:50pm 8ft 13s 9s 9
mph
1015.1mb 75f 69f
10:50pm 7.5ft 13s 8s 7 11 mph 1014.9mb 75f 69f
9:50pm 7ft 10s 8s 9 13 mph 1014.3mb 75f 69f
8:50pm 7.5ft 10s 8s 4 9 mph 1013.9mb 75f 70f
7:50pm 7.5ft 9s 8s 7 11 mph 1013.8mb 75f 70f
6:50pm 7ft 9s 8s 11 13 mph 1013.8mb 75f 69f
5:50pm 6.5ft 10s 8s 13 16 mph 1014.2mb 75f 69f
4:50pm 7ft 10s 8s 9 11 mph 1014.7mb 75f 69f
3:50pm 7.5ft 10s 8s 11 16 mph 1015.6mb 75f 69f
2:50pm 7.5ft 10s 8s 9 13 mph 1016.2mb 75f 70f
1:50pm 6.5ft 10s 7s 9 13 mph 1016.2mb 74f 70f
12:50pm 7ft 10s 8s 9 11 mph 1015.4mb 74f 69f
11:50am 6.5ft 9s 8s 16 18 mph 1015mb 74f 68f
10:50am 6.5ft 11s 7s 11 13 mph 1014.8mb 74f 69f
9:50am 6.5ft 10s 7s 11 13 mph 1014.3mb 74f 69f
8:50am 7.5ft 10s 8s 9 13 mph 1013.9mb 74f 69f
7:50am 7ft 11s 7s 13 16 mph 1014.1mb 74f 69f
6:50am 8ft 10s 8s 11 16 mph 1014.1mb 74f 69f
5:50am 7ft 10s 7s 11 16 mph 1014.4mb 74f 70f
4:50am 8ft 11s 8s 11 13 mph 1014.3mb 74f 70f
3:50am 8ft 11s 8s 11 13 mph 1014.8mb 74f 70f
2:50am 7.5ft 10s 7s 13 16 mph 1015.1mb 74f 70f
1:50am 8ft 11s 7s 11 16 mph 1014.9mb 74f 70f
12:50am 8.5ft 9s 8s 11 16 mph 1014.6mb 74f 70f
Fri 01/20 11:50pm 7ft 10s 7s 13 18 mph 1014.1mb 74f 70f
10:50pm 8ft 11s 7s 16 20 mph 1013.8mb 74f 70f
9:50pm 8ft 11s 7s 13 18 mph 1013.4mb 74f 70f
8:50pm 8.5ft 11s 8s 9 13 mph 1013mb 74f 69f
7:50pm 9ft 11s 8s 16 20 mph 1012.3mb 74f 70f
6:50pm 9ft 10s 8s 11 16 mph 1011.9mb 74f 70f
5:50pm 9ft 11s 8s 9 11 mph 1012.2mb 74f 69f
4:50pm 9ft 10s 7s 18 20 mph 1012.6mb 74f 69f
3:50pm 7.5ft 11s 7s 13 18 mph 1013.2mb 73f 69f
2:50pm 8ft 9s 7s 18 22 mph 1013.8mb 73f 69f
1:50pm 9ft 11s 7s 16 25 mph 1013.7mb 73f 70f
12:50pm 9.5ft 9s 7s 11 13 mph 1013mb 71f 70f
11:50am 9ft 9s 7s 16 20 mph 1012.1mb 71f 69f
10:50am 9ft 11s 7s 16 20 mph 1011.2mb 71f 69f
9:50am 9.5ft 11s 7s 18 22 mph 1010.5mb 71f 69f
8:50am 10ft 11s 7s 16 20 mph 1010.2mb 71f 68f
7:50am 10ft 11s 7s 22 25 mph 1009.7mb 72f 69f
6:50am 10.5ft 11s 7s 20 25 mph 1010mb 72f 70f
5:50am 10ft 10s 7s 22 27 mph 1010.2mb 72f 70f
4:50am 10ft 10s 7s 22 27 mph 1010.2mb 72f 70f
3:50am 10.5ft 11s 7s 22 27 mph 1010.1mb 72f 70f
2:50am 10ft 10s 7s 25 29 mph 1010.4mb 72f 70f
1:50am 10.5ft 10s 7s 22 29 mph 1010.4mb 72f 70f
12:50am 10ft 8s 7s 22 27 mph 1010.3mb 72f 70f
Thu 01/19 11:50pm 10.5ft 8s 7s 22 27 mph 1009.8mb 72f 70f
10:50pm 10ft 8s 6s 25 29 mph 1009.1mb 71f 71f
9:50pm 10.5ft 8s 7s 25 29 mph 1008.9mb 71f 71f
8:50pm 10ft 8s 6s 25 29 mph 1008.2mb 72f 71f
7:50pm 11ft 8s 6s 25 31 mph 1007.8mb 72f 71f
6:50pm 9ft 8s 6s 27 34 mph 1007.5mb 72f 71f
5:50pm 9ft 7s 6s 22 27 mph 1007.8mb 73f 68f
4:50pm 7ft 7s 5s 31 36 mph 1008mb 73f 71f
3:50pm 7.5ft 6s 5s 34 43 mph 1008.8mb 74f 74f
2:50pm 7ft 6s 5s 29 36 mph 1010.2mb 74f 74f
1:50pm 6ft 5s 5s 29 36 mph 1011.1mb 74f 74f
12:50pm 5.5ft 5s 5s 27 31 mph 1011.3mb 74f 70f
11:50am 5ft 5s 5s 29 34 mph 1010.9mb 74f 72f
10:50am 4.5ft 4s 4s 25 31 mph 1011.3mb 74f 72f
9:50am 4ft 10s 4s 22 29 mph 1011.7mb 74f 71f
8:50am 4ft 9s 5s 20 25 mph 1012.2mb 73f 71f
7:50am 3.5ft 10s 5s 20 22 mph 1013.2mb 73f 71f
6:50am 3.5ft 9s 5s 18 20 mph 1014.4mb 72f 71f
5:50am 4ft 8s 6s 16 20 mph 1015.1mb 72f 70f
4:50am 4ft 8s 6s 16 18 mph 1016mb 72f 70f
3:50am 4ft 9s 7s 13 16 mph 1016.8mb 72f 70f
2:50am 4ft 9s 7s 13 16 mph 1017.4mb 73f 70f
1:50am 4.5ft 9s 7s 11 13 mph 1018.2mb 73f 70f
12:50am 4.5ft 10s 7s 9 11 mph 1018.7mb 73f 69f
Wed 01/18 11:50pm 4ft 10s 7s 7 9 mph 1019mb 72f 69f
10:50pm 4.5ft 10s 7s 7 9 mph 1019mb 72f 69f
9:50pm 4.5ft 8s 7s 4 9 mph 1019mb 72f 69f
8:50pm 5ft 9s 7s 4 9 mph 1019mb 72f 69f
7:50pm 5ft 9s 7s 2 4 mph 1019.2mb 73f 70f
6:50pm 6ft 10s 8s 2 4 mph 1019.2mb 73f 69f
5:50pm 5ft 10s 7s 2 4 mph 1019.7mb 73f 69f
4:50pm 6ft 8s 7s 2 4 mph 1020.5mb 72f 69f
3:50pm 6ft 10s 7s 2 4 mph 1021.8mb 72f 69f
2:50pm 6ft 9s 7s 2 4 mph 1023mb 72f 69f
1:50pm 5.5ft 9s 7s 4 7 mph 1023.2mb 72f 69f
12:50pm 5.5ft 8s 7s 4 9 mph 1023.5mb 73f 69f
11:50am 6ft 9s 7s 4 7 mph 1023.3mb 73f 68f
10:50am 5ft 8s 7s 7 9 mph 1023.1mb 73f 68f
9:50am 5.5ft 9s 7s 9 13 mph 1023.1mb 74f 68f